Alvarado, Texas
Current Conditions -  °F | °C
As of 11:55 PM on Wednesday 28 Jan 2015 (Local Time) from KFWS Reporting Station
Scattered Clouds Scattered Clouds  
Wind Chill: 64°   Ceiling: Unl
Heat Index: 64°   Visibility: 10mi
Dew Point: 39°   Wind: 9mph
Humidity: 41%   Direction: 200°SSW
Pressure: 30.07"   Gusts: NA
Location:  32.41°N, 97.21°W
Report Text: KFWS 290555Z AUTO 20008KT 10SM SCT100 18/04 A3007 RMK AO2 T01750041 10237 20175 402800069
Loading
Personal Weather Stations






























Interactive Weather Map New forecast layout! Learn more

10-Day Weather Forecast

Advertisements
Track Severe Weather on mobile